Terminal Aerodrome Forecast
Issued by NWS

Home | Current Version | Previous Version | Text Only | Print | Product List | Glossary On
Versions: 1 2 3 4 5 6 7 8 9 10 11 12
000
FTUS45 KGJT 190530
TAFMTJ
TAF
KMTJ 190530Z 1906/2006 13009KT P6SM SKC
     FM191500 VRB03KT P6SM SKC
     FM191900 34005KT P6SM FEW140
     FM200300 14005KT P6SM SKC=

USA.gov is the U.S. government's official web portal to all federal, state and local government web resources and services.